Time;durP1;ratioP1;P1;durP2;ratioP2;P2;SDS_P1;SDS_P2;PMS_P1;PMS_P2;Temp;Humidity;BMP_temperature;BMP_pressure;BME280_temperature;BME280_humidity;BME280_pressure;Samples;Min_cycle;Max_cycle;Signal;HPM_P1;HPM_P2
2023/08/18 00:01:28;;;;;;;31.48;19.48;;;;;;;-144.05;92.09;56993.25;6158001;23;20013;-88
2023/08/18 00:03:58;;;;;;;32.78;18.25;;;;;;;-144.05;92.26;56972.03;6159752;23;20020;-87
2023/08/18 00:06:24;;;;;;;31.95;19.30;;;17.30;99.90;;;-144.05;93.06;56991.13;6160154;23;20324;-87
2023/08/18 00:08:50;;;;;;;34.78;19.95;;;;;;;-144.05;92.74;56963.53;6157986;23;20005;-85
2023/08/18 00:11:16;;;;;;;33.30;20.08;;;18.90;99.90;;;-144.05;92.90;56982.66;6187754;23;20072;-86
2023/08/18 00:13:42;;;;;;;35.35;18.90;;;18.40;99.90;;;-144.05;93.12;56997.50;6188896;23;20012;-87
2023/08/18 00:16:08;;;;;;;36.58;18.73;;;18.40;99.90;;;-144.05;93.11;56959.28;6186848;23;20017;-88
2023/08/18 00:18:34;;;;;;;33.45;20.55;;;;;;;-144.05;93.44;56965.66;6161824;23;20009;-87
2023/08/18 00:21:00;;;;;;;35.67;20.00;;;18.50;99.90;;;-144.05;93.50;56982.66;6187291;23;20013;-83
2023/08/18 00:23:27;;;;;;;36.63;20.25;;;;;;;-144.05;93.53;56974.16;6187292;23;20037;-87
2023/08/18 00:25:52;;;;;;;31.83;19.30;;;18.60;99.90;;;-144.05;93.85;57016.63;6160199;23;20013;-86
2023/08/18 00:28:18;;;;;;;33.97;19.40;;;18.30;99.90;;;-144.05;93.96;56984.78;6186555;23;20454;-87
2023/08/18 00:30:45;;;;;;;31.65;18.50;;;15.40;99.90;;;-144.05;93.48;56989.00;6186940;23;20028;-88
2023/08/18 00:33:11;;;;;;;32.22;19.23;;;;;;;-144.05;94.06;56952.91;6160663;23;20005;-88
2023/08/18 00:35:37;;;;;;;29.60;18.83;;;15.10;99.90;;;-144.05;94.12;56984.78;6187396;23;20005;-86
2023/08/18 00:38:04;;;;;;;35.53;21.23;;;;;;;-144.05;94.12;56980.53;6187474;23;20443;-87
2023/08/18 00:40:30;;;;;;;31.95;19.15;;;18.90;99.90;;;-144.05;94.38;56957.16;6160215;23;20015;-87
2023/08/18 00:42:55;;;;;;;34.22;20.27;;;15.20;99.90;;;-144.05;94.26;56972.03;6186841;23;20036;-88
2023/08/18 00:45:22;;;;;;;38.95;20.83;;;18.50;99.90;;;-144.05;93.52;56976.28;6160511;23;20162;-86
2023/08/18 00:47:49;;;;;;;33.22;19.48;;;17.30;99.90;;;-144.05;93.35;56986.91;6186486;23;20005;-88
2023/08/18 00:50:18;;;;;;;43.28;23.20;;;15.20;99.90;;;-144.05;94.16;56991.13;6160310;23;20008;-88
2023/08/18 00:52:56;;;;;;;44.05;22.45;;;18.20;99.90;;;-144.05;93.48;57001.75;6160502;23;20043;-89
2023/08/18 00:55:23;;;;;;;43.38;23.38;;;17.50;99.90;;;-144.05;93.35;56995.38;6186803;23;20005;-86
2023/08/18 00:57:50;;;;;;;40.90;22.17;;;17.90;99.90;;;-144.05;93.50;56986.91;6187082;23;20037;-89
2023/08/18 01:00:16;;;;;;;47.05;23.40;;;18.20;99.90;;;-144.05;94.31;56976.28;6160667;23;20012;-88
2023/08/18 01:02:44;;;;;;;44.92;24.27;;;;;;;-144.05;94.18;56982.66;6186779;23;20005;-89
2023/08/18 01:05:10;;;;;;;37.90;21.55;;;;;;;-144.05;93.83;56997.50;6160656;23;20013;-87
2023/08/18 01:07:36;;;;;;;45.97;24.23;;;;;;;-144.05;94.42;56967.78;6160023;23;20013;-87
2023/08/18 01:10:03;;;;;;;45.10;22.83;;;18.40;99.90;;;-144.05;94.26;56989.00;6160208;23;20080;-88
2023/08/18 01:13:10;;;;;;;45.03;23.88;;;15.40;99.90;;;-144.05;94.71;56993.25;6160691;23;20461;-88
2023/08/18 01:15:44;;;;;;;40.78;23.60;;;18.50;99.90;;;-144.05;94.77;56993.25;6163118;23;20012;-88
2023/08/18 01:18:12;;;;;;;39.70;22.02;;;18.10;99.90;;;-144.05;94.78;56982.66;6160401;23;20001;-85
2023/08/18 01:20:40;;;;;;;47.25;24.35;;;;;;;-144.05;94.87;56984.78;6160787;23;20089;-87
2023/08/18 01:23:07;;;;;;;49.53;25.90;;;15.50;99.90;;;-144.05;95.43;56999.63;6160461;23;20008;-88
2023/08/18 01:25:33;;;;;;;41.88;23.38;;;18.30;99.90;;;-144.05;95.06;56974.16;6160684;23;20009;-89
2023/08/18 01:28:02;;;;;;;52.58;26.23;;;17.30;99.90;;;-144.05;95.33;56999.63;6160477;23;20096;-90
2023/08/18 01:30:53;;;;;;;49.75;26.27;;;18.00;99.90;;;-144.05;95.48;56986.91;6164792;23;20493;-88
2023/08/18 01:33:40;;;;;;;49.08;24.40;;;18.70;99.90;;;-144.05;95.10;56995.38;6164785;23;20008;-89
2023/08/18 01:36:17;;;;;;;49.85;26.10;;;18.60;99.90;;;-144.05;95.34;57014.50;6189346;23;20009;-89
2023/08/18 01:38:48;;;;;;;46.72;23.52;;;17.30;99.90;;;-144.05;94.66;57014.50;6165895;23;20092;-88
2023/08/18 01:41:22;;;;;;;47.35;23.42;;;15.30;99.90;;;-144.05;94.85;57001.75;6164109;23;20453;-89
2023/08/18 01:43:48;;;;;;;51.78;27.15;;;18.80;99.90;;;-144.05;94.70;56969.91;6164534;23;20005;-87
2023/08/18 01:46:14;;;;;;;50.78;25.73;;;18.50;99.90;;;-144.05;95.04;56976.28;6165552;23;20016;-89
2023/08/18 01:48:40;;;;;;;48.33;25.08;;;;;;;-144.05;96.09;56984.78;6163329;23;20112;-89
2023/08/18 01:51:06;;;;;;;50.65;25.60;;;18.60;99.90;;;-144.05;95.50;56980.53;6163027;23;20009;-89
2023/08/18 01:53:32;;;;;;;55.63;28.13;;;;;;;-144.05;95.37;56989.00;6189209;23;20051;-90
2023/08/18 01:56:05;;;;;;;47.35;24.95;;;18.40;99.90;;;-144.05;95.20;57006.00;6188488;23;20009;-89
2023/08/18 01:58:31;;;;;;;52.70;25.58;;;18.80;99.90;;;-144.05;95.04;56978.41;6163513;23;20016;-89
2023/08/18 02:00:58;;;;;;;61.17;29.02;;;18.60;99.90;;;-144.05;95.45;56999.63;6162545;23;20088;-86
2023/08/18 02:03:27;;;;;;;55.35;28.83;;;17.20;99.90;;;-144.05;95.53;56972.03;6160203;23;20005;-89
2023/08/18 02:05:57;;;;;;;56.05;28.27;;;15.30;99.90;;;-144.05;95.70;57003.88;6160202;23;20386;-89
2023/08/18 02:08:24;;;;;;;53.65;27.08;;;;;;;-144.05;95.52;56993.25;6159583;23;20005;-89
2023/08/18 02:10:50;;;;;;;51.75;24.98;;;;;;;-144.05;95.34;56969.91;6159957;23;20016;-88
2023/08/18 02:13:17;;;;;;;57.53;27.85;;;;;;;-144.05;95.08;56980.53;6187730;23;20012;-89
2023/08/18 02:15:47;;;;;;;57.08;28.25;;;18.20;99.90;;;-144.05;94.99;56997.50;6159875;23;20044;-89
2023/08/18 02:18:13;;;;;;;57.78;27.98;;;;;;;-144.05;95.04;56989.00;6158721;23;20161;-89
2023/08/18 02:20:40;;;;;;;54.92;26.20;;;;;;;-144.05;94.82;56999.63;6158800;23;20084;-89
2023/08/18 02:23:06;;;;;;;59.50;27.02;;;;;;;-144.05;94.94;56997.50;6185694;23;20005;-93
2023/08/18 02:25:32;;;;;;;56.97;27.20;;;;;;;-144.05;95.24;56980.53;6211333;23;20061;-85
2023/08/18 02:27:58;;;;;;;58.47;26.35;;;18.60;99.90;;;-144.05;95.01;56969.91;6186990;23;20040;-82
2023/08/18 02:30:26;;;;;;;54.40;27.58;;;15.40;99.90;;;-144.05;94.82;56986.91;6187087;23;20009;-88
2023/08/18 02:32:52;;;;;;;49.25;24.50;;;18.30;99.90;;;-144.05;94.67;56995.38;6176426;23;20016;-89
2023/08/18 02:35:18;;;;;;;54.53;25.98;;;;;;;-144.05;94.89;56972.03;6162587;23;20009;-89
2023/08/18 02:37:44;;;;;;;50.88;24.77;;;18.80;99.90;;;-144.05;94.94;57006.00;6159322;23;20011;-88
2023/08/18 02:40:10;;;;;;;51.80;25.23;;;16.50;99.90;;;-144.05;95.04;56993.25;6159445;23;20013;-90
2023/08/18 02:42:36;;;;;;;51.60;25.33;;;15.00;99.90;;;-144.05;94.94;57008.13;6164451;23;20013;-89
2023/08/18 02:45:03;;;;;;;52.25;25.42;;;17.20;99.90;;;-144.05;95.46;56984.78;6185570;23;20356;-91
2023/08/18 02:47:29;;;;;;;44.95;23.60;;;17.50;99.90;;;-144.05;95.61;56982.66;6188161;23;20059;-91
2023/08/18 02:49:55;;;;;;;46.78;24.58;;;18.20;99.90;;;-144.05;95.47;56980.53;6160541;23;20008;-89
2023/08/18 02:52:22;;;;;;;51.35;24.52;;;18.40;99.90;;;-144.05;95.61;56999.63;6160311;23;20260;-89
2023/08/18 02:54:48;;;;;;;47.42;23.70;;;18.30;99.90;;;-144.05;95.32;56993.25;6160690;23;20013;-90
2023/08/18 02:57:14;;;;;;;46.53;22.75;;;18.20;99.90;;;-144.05;95.31;56972.03;6160555;23;20398;-89
2023/08/18 02:59:41;;;;;;;44.03;23.85;;;;;;;-144.05;95.48;56997.50;6159144;23;20453;-89
2023/08/18 03:02:06;;;;;;;44.20;22.73;;;18.70;99.90;;;-144.05;95.19;56982.66;6186473;23;20016;-90
2023/08/18 03:04:33;;;;;;;48.83;23.50;;;;;;;-144.05;95.38;56984.78;6158429;23;20005;-89
2023/08/18 03:06:59;;;;;;;39.95;22.08;;;;;;;-144.05;95.20;56978.41;6159053;23;20437;-89
2023/08/18 03:09:25;;;;;;;41.20;21.50;;;18.70;99.90;;;-144.05;95.15;56982.66;6158658;23;20015;-89
2023/08/18 03:11:51;;;;;;;46.55;23.13;;;;;;;-144.05;95.46;56963.53;6158434;23;20013;-89
2023/08/18 03:14:17;;;;;;;43.63;24.27;;;;;;;-144.05;96.19;56974.16;6158668;23;20143;-90
2023/08/18 03:16:44;;;;;;;50.67;24.58;;;;;;;-144.05;95.43;56967.78;6185395;23;20029;-89
2023/08/18 03:19:10;;;;;;;45.03;23.08;;;;;;;-144.05;95.51;56978.41;6160720;23;20391;-87
2023/08/18 03:21:36;;;;;;;51.78;25.20;;;18.60;99.90;;;-144.05;95.43;56978.41;6159647;23;20095;-88
2023/08/18 03:24:04;;;;;;;38.45;21.33;;;15.20;99.90;;;-144.05;95.00;56931.66;6187587;23;20461;-88
2023/08/18 03:26:30;;;;;;;40.17;22.20;;;;;;;-144.05;94.82;56976.28;6159643;23;20008;-87
2023/08/18 03:28:57;;;;;;;39.20;21.25;;;18.70;99.90;;;-144.05;95.00;56991.13;6187201;23;20005;-87
2023/08/18 03:31:23;;;;;;;37.42;20.13;;;17.00;99.90;;;-144.05;94.79;57010.25;6159097;23;20064;-89
2023/08/18 03:33:49;;;;;;;36.78;21.75;;;;;;;-144.05;94.54;57006.00;6159057;23;20040;-86
2023/08/18 03:36:16;;;;;;;34.90;21.48;;;;;;;-144.05;94.46;56974.16;6160448;23;20009;-87
2023/08/18 03:38:42;;;;;;;42.90;22.45;;;;;;;-144.05;94.54;56984.78;6188622;23;20004;-87
2023/08/18 03:41:09;;;;;;;43.05;23.50;;;;;;;-144.05;94.36;56997.50;6187761;23;20009;-88
2023/08/18 03:43:35;;;;;;;44.40;22.70;;;18.40;99.90;;;-144.05;94.62;56986.91;6175879;23;20009;-84
2023/08/18 03:46:20;;;;;;;48.97;22.23;;;17.90;99.90;;;-144.05;94.40;56976.28;6201106;23;20073;-84
2023/08/18 03:48:46;;;;;;;46.42;22.55;;;18.10;99.90;;;-144.05;94.54;57001.75;6198736;23;20052;-89
2023/08/18 03:51:13;;;;;;;41.88;22.65;;;;;;;-144.05;94.25;56976.28;6174864;23;20021;-86
2023/08/18 03:53:39;;;;;;;40.70;21.80;;;15.00;99.90;;;-144.05;94.32;56984.78;6200179;23;20004;-85
2023/08/18 03:56:05;;;;;;;45.53;23.10;;;;;;;-144.05;95.34;56978.41;6195428;23;20009;-83
2023/08/18 03:58:31;;;;;;;40.65;21.52;;;18.40;99.90;;;-144.05;94.24;56993.25;6158083;23;20009;-87
2023/08/18 04:01:08;;;;;;;41.20;23.15;;;16.90;99.90;;;-144.05;94.64;56991.13;6186927;23;20435;-84
2023/08/18 04:03:39;;;;;;;40.95;22.15;;;16.80;99.90;;;-144.05;94.58;56976.28;6159617;23;20439;-86
2023/08/18 04:06:05;;;;;;;38.38;20.67;;;15.00;99.90;;;-144.05;93.96;56991.13;6164381;23;20012;-88
2023/08/18 04:08:39;;;;;;;39.00;21.25;;;18.20;99.90;;;-144.05;93.95;56989.00;6185238;23;20005;-88
2023/08/18 04:11:05;;;;;;;38.90;21.05;;;;;;;-144.05;94.23;56980.53;6160475;23;20459;-90
2023/08/18 04:13:31;;;;;;;42.20;22.38;;;18.10;99.90;;;-144.05;94.24;56972.03;6187617;23;20025;-86
2023/08/18 04:15:57;;;;;;;41.35;21.30;;;17.70;99.90;;;-144.05;94.15;56976.28;6186855;23;20009;-85
2023/08/18 04:18:24;;;;;;;34.90;19.73;;;;;;;-144.05;93.88;57001.75;6161785;23;20016;-86
2023/08/18 04:20:50;;;;;;;39.72;20.58;;;17.60;99.90;;;-144.05;93.65;56993.25;6160672;23;20009;-85
2023/08/18 04:23:16;;;;;;;35.35;19.60;;;17.70;99.90;;;-144.05;94.03;57006.00;6186270;23;20484;-86
2023/08/18 04:25:43;;;;;;;33.30;18.25;;;17.40;99.90;;;-144.05;93.81;56989.00;6162228;23;20012;-87
2023/08/18 04:28:09;;;;;;;39.53;20.70;;;;;;;-144.05;93.70;56986.91;6163184;23;20001;-87
2023/08/18 04:30:36;;;;;;;38.00;20.15;;;14.50;99.90;;;-144.05;93.98;56993.25;6192591;23;20009;-88
2023/08/18 04:33:02;;;;;;;37.80;20.58;;;;;;;-144.05;94.99;56999.63;6186246;23;20462;-89
2023/08/18 04:35:28;;;;;;;34.30;19.75;;;;;;;-144.05;94.00;56972.03;6159313;23;20489;-86
2023/08/18 04:37:55;;;;;;;36.20;20.27;;;;;;;-144.05;94.85;57001.75;6160602;23;20024;-88
2023/08/18 04:40:21;;;;;;;34.33;20.08;;;14.50;99.90;;;-144.05;94.71;56984.78;6157904;23;20020;-84
2023/08/18 04:42:47;;;;;;;39.45;20.55;;;14.60;99.90;;;-144.05;95.86;56995.38;6157125;23;20024;-86
2023/08/18 04:45:13;;;;;;;40.00;21.38;;;14.20;99.90;;;-144.05;94.96;56984.78;6183609;23;20036;-88
2023/08/18 04:47:40;;;;;;;36.78;20.38;;;18.20;99.90;;;-144.05;95.12;56986.91;6157771;23;20009;-86
2023/08/18 04:50:07;;;;;;;40.38;20.45;;;14.90;99.90;;;-144.05;94.52;57014.50;6183726;23;20056;-87
2023/08/18 04:52:33;;;;;;;34.20;18.63;;;14.90;99.90;;;-144.05;94.95;56986.91;6185578;23;20005;-85
2023/08/18 04:54:58;;;;;;;32.17;17.45;;;17.60;99.90;;;-144.05;94.69;56999.63;6158614;23;20020;-87
2023/08/18 04:57:24;;;;;;;35.47;18.52;;;;;;;-144.05;94.77;57003.88;6159842;23;20013;-87
2023/08/18 04:59:51;;;;;;;35.83;18.20;;;;;;;-144.05;94.45;56989.00;6161626;23;20009;-86
2023/08/18 05:02:17;;;;;;;32.97;18.55;;;;;;;-144.05;94.36;56984.78;6190050;23;20012;-84
2023/08/18 05:04:43;;;;;;;36.85;19.88;;;;;;;-144.05;94.21;56989.00;6187466;23;20009;-87
2023/08/18 05:07:09;;;;;;;38.75;20.98;;;;;;;-144.05;93.98;56978.41;6161318;23;20005;-86
2023/08/18 05:09:36;;;;;;;56.22;27.08;;;;;;;-144.05;93.94;56993.25;6161045;23;20024;-87
2023/08/18 05:12:02;;;;;;;44.88;24.10;;;18.30;99.90;;;-144.05;94.03;57023.00;6161328;23;20120;-81
2023/08/18 05:14:28;;;;;;;53.75;26.58;;;18.50;99.90;;;-144.05;93.97;56978.41;6187198;23;20458;-85
2023/08/18 05:16:54;;;;;;;46.28;24.15;;;18.40;99.90;;;-144.05;93.95;57006.00;6160502;23;20061;-86
2023/08/18 05:19:20;;;;;;;40.35;22.00;;;;;;;-144.05;93.71;56995.38;6164051;23;20016;-85
2023/08/18 05:21:46;;;;;;;41.70;22.00;;;18.00;99.90;;;-144.05;93.67;57001.75;6187545;23;20032;-85
2023/08/18 05:24:12;;;;;;;42.40;22.77;;;;;;;-144.05;93.73;56986.91;6160515;23;20439;-85
2023/08/18 05:26:38;;;;;;;37.70;20.88;;;;;;;-144.05;93.93;56995.38;6160934;23;20111;-85
2023/08/18 05:29:04;;;;;;;39.92;21.00;;;15.10;99.90;;;-144.05;93.61;56997.50;6160586;23;20442;-84
2023/08/18 05:31:30;;;;;;;37.67;21.05;;;18.40;99.90;;;-144.05;93.92;56984.78;6161222;23;20295;-87
2023/08/18 05:33:56;;;;;;;36.97;21.02;;;17.60;99.90;;;-144.05;93.71;56997.50;6160949;23;20019;-86
2023/08/18 05:36:22;;;;;;;37.42;20.38;;;16.70;99.90;;;-144.05;93.84;56984.78;6192313;23;19993;-87
2023/08/18 05:38:48;;;;;;;37.55;20.00;;;;;;;-144.05;93.81;56991.13;6161748;23;20167;-85
2023/08/18 05:41:15;;;;;;;42.50;20.50;;;;;;;-144.05;93.98;56984.78;6186988;23;20442;-83
2023/08/18 05:43:42;;;;;;;38.08;20.00;;;;;;;-144.05;93.76;56999.63;6160290;23;20005;-89
2023/08/18 05:46:09;;;;;;;37.95;19.80;;;18.50;99.90;;;-144.05;93.55;56993.25;6160911;23;20009;-83
2023/08/18 05:48:35;;;;;;;35.70;19.15;;;18.40;99.90;;;-144.05;93.73;56980.53;6186733;23;20001;-88
2023/08/18 05:51:02;;;;;;;37.92;19.10;;;;;;;-144.05;93.58;56980.53;6160691;23;20005;-87
2023/08/18 05:53:30;;;;;;;29.75;15.55;;;16.10;99.90;;;-144.05;93.75;56991.13;6160399;23;20009;-84
2023/08/18 05:55:57;;;;;;;26.45;15.65;;;18.30;99.90;;;-144.05;93.70;57001.75;6160605;23;20013;-85
2023/08/18 05:58:23;;;;;;;26.52;15.38;;;18.50;99.90;;;-144.05;93.15;56984.78;6161107;23;20039;-86
2023/08/18 06:00:50;;;;;;;29.70;15.60;;;16.90;99.90;;;-144.05;93.15;57001.75;6160911;23;20447;-86
2023/08/18 06:03:19;;;;;;;28.80;15.20;;;15.10;99.90;;;-144.05;93.63;56997.50;6161642;23;20431;-86
2023/08/18 06:05:50;;;;;;;25.75;14.95;;;;;;;-144.05;93.47;56972.03;6187181;23;20435;-83
2023/08/18 06:08:16;;;;;;;24.90;14.63;;;13.00;99.90;;;-144.05;93.30;56982.66;6186750;23;20004;-86
2023/08/18 06:10:43;;;;;;;25.67;14.93;;;15.10;99.90;;;-144.05;93.44;57006.00;6161021;23;20036;-87
2023/08/18 06:13:09;;;;;;;24.98;15.02;;;18.50;99.90;;;-144.05;92.99;56991.13;6186026;23;20512;-86
2023/08/18 06:15:37;;;;;;;25.05;14.15;;;15.00;99.90;;;-144.05;92.73;56995.38;6186922;23;20009;-83
2023/08/18 06:18:03;;;;;;;26.08;13.25;;;15.20;99.90;;;-144.05;93.04;57010.25;6160527;23;20009;-86
2023/08/18 06:20:30;;;;;;;21.38;13.18;;;;;;;-144.05;93.04;56976.28;6187085;23;20020;-83
2023/08/18 06:22:56;;;;;;;20.52;13.77;;;;;;;-144.05;92.73;56999.63;6187666;23;20032;-88
2023/08/18 06:25:22;;;;;;;21.83;12.38;;;17.70;99.90;;;-144.05;92.52;57014.50;6165419;23;20009;-89
2023/08/18 06:27:48;;;;;;;19.88;11.70;;;;;;;-144.05;92.38;57003.88;6164220;23;20015;-86
2023/08/18 06:30:14;;;;;;;22.65;12.80;;;18.60;99.90;;;-144.05;92.31;56976.28;6161854;23;20069;-89
2023/08/18 06:32:40;;;;;;;23.65;12.88;;;18.30;99.90;;;-144.05;92.03;56957.16;6161710;23;20582;-89
2023/08/18 06:35:07;;;;;;;22.02;12.50;;;18.70;99.90;;;-144.05;92.41;56991.13;6187116;23;20015;-86
2023/08/18 06:37:33;;;;;;;23.98;13.15;;;;;;;-144.05;92.29;56984.78;6185856;23;20473;-88
2023/08/18 06:39:59;;;;;;;21.77;12.18;;;15.40;99.90;;;-144.05;92.11;57016.63;6159729;23;20017;-85
2023/08/18 06:42:25;;;;;;;19.98;12.68;;;;;;;-144.05;91.96;56940.16;6160731;23;20020;-86
2023/08/18 06:44:51;;;;;;;19.38;11.88;;;18.20;99.90;;;-144.05;91.71;56978.41;6160777;23;20338;-87
2023/08/18 06:47:16;;;;;;;19.10;12.60;;;15.80;99.90;;;-144.05;91.78;56991.13;6187155;23;20005;-86
2023/08/18 06:49:43;;;;;;;21.02;11.80;;;;;;;-144.05;91.64;57012.38;6187883;23;20012;-87
2023/08/18 06:52:09;;;;;;;20.48;12.13;;;;;;;-144.05;91.16;57018.75;6188352;23;20009;-86
2023/08/18 06:54:35;;;;;;;20.70;12.00;;;15.10;99.90;;;-144.05;91.05;56982.66;6161883;23;20005;-86
2023/08/18 06:57:01;;;;;;;19.40;11.88;;;;;;;-144.05;91.56;57003.88;6187194;23;20343;-86
2023/08/18 06:59:28;;;;;;;20.35;11.82;;;18.30;99.90;;;-144.05;92.03;56986.91;6187259;23;20012;-86
2023/08/18 07:01:54;;;;;;;19.52;12.25;;;18.80;99.90;;;-144.05;94.33;56980.53;6162536;23;20005;-85
2023/08/18 07:04:20;;;;;;;16.05;10.27;;;;;;;-144.05;94.45;56978.41;6159834;23;20039;-86
2023/08/18 07:06:47;;;;;;;17.20;10.85;;;18.70;99.90;;;-144.05;95.06;56986.91;6160008;23;20028;-86
2023/08/18 07:09:13;;;;;;;17.08;11.00;;;;;;;-144.05;94.81;56978.41;6159703;23;20005;-87
2023/08/18 07:11:40;;;;;;;17.05;10.73;;;;;;;-144.05;95.32;56965.66;6159400;23;20009;-89
2023/08/18 07:14:06;;;;;;;19.05;11.07;;;18.80;99.90;;;-144.05;95.15;56997.50;6187548;23;20509;-87
2023/08/18 07:16:32;;;;;;;16.67;10.60;;;19.10;99.90;;;-144.05;94.90;56984.78;6160515;23;20078;-87
2023/08/18 07:18:58;;;;;;;17.55;10.73;;;19.20;99.90;;;-144.05;94.99;56995.38;6158634;23;20032;-87
2023/08/18 07:21:24;;;;;;;17.92;10.30;;;18.80;99.90;;;-144.05;94.92;57001.75;6158510;23;20321;-87
2023/08/18 07:23:49;;;;;;;20.42;11.63;;;19.20;99.90;;;-144.05;94.60;57006.00;6184937;23;20024;-87
2023/08/18 07:26:16;;;;;;;18.50;10.75;;;;;;;-144.05;94.39;56995.38;6164254;23;20025;-85
2023/08/18 07:28:42;;;;;;;21.17;12.50;;;17.60;99.90;;;-144.05;94.23;57023.00;6185164;23;20082;-83
2023/08/18 07:31:08;;;;;;;17.00;9.68;;;19.50;99.90;;;-144.05;94.19;56999.63;6211759;23;20013;-87
2023/08/18 07:33:35;;;;;;;18.55;11.32;;;17.70;99.90;;;-144.05;93.40;57012.38;6183646;23;20020;-87
2023/08/18 07:36:02;;;;;;;16.90;10.48;;;;;;;-144.05;93.16;57012.38;6161816;23;20017;-86
2023/08/18 07:38:34;;;;;;;15.30;10.40;;;15.80;99.90;;;-144.05;93.39;57016.63;6185932;23;20346;-86
2023/08/18 07:41:00;;;;;;;14.95;9.88;;;18.40;99.90;;;-144.05;92.72;56997.50;6159849;23;20036;-86
2023/08/18 07:43:26;;;;;;;14.52;10.43;;;;;;;-144.05;92.35;56980.53;6159222;23;20411;-86
2023/08/18 07:45:52;;;;;;;15.48;10.82;;;;;;;-144.05;91.89;57006.00;6159201;23;20084;-86
2023/08/18 07:48:19;;;;;;;15.63;10.20;;;;;;;-144.05;91.85;56989.00;6159869;23;20016;-86
2023/08/18 07:50:45;;;;;;;16.20;11.10;;;19.30;99.90;;;-144.05;91.57;56991.13;6159447;23;20033;-85
2023/08/18 07:53:11;;;;;;;16.05;10.52;;;;;;;-144.05;91.56;57020.88;6159663;23;20052;-86
2023/08/18 07:55:37;;;;;;;15.13;10.52;;;19.20;99.90;;;-144.05;91.55;56991.13;6159241;23;20020;-86
2023/08/18 07:58:04;;;;;;;15.80;10.95;;;15.80;99.90;;;-144.05;92.54;56999.63;6159447;23;20009;-85
2023/08/18 08:00:30;;;;;;;15.98;10.18;;;19.70;99.90;;;-144.05;91.78;57014.50;6160132;23;20008;-84
2023/08/18 08:02:59;;;;;;;16.17;10.45;;;16.30;99.90;;;-144.05;91.76;56993.25;6159272;23;20435;-85
2023/08/18 08:05:26;;;;;;;19.38;10.90;;;15.90;99.90;;;-144.05;91.78;56993.25;6159375;23;20001;-86
2023/08/18 08:07:52;;;;;;;16.38;11.05;;;19.60;99.90;;;-144.05;91.26;56993.25;6159261;23;20005;-85
2023/08/18 08:10:18;;;;;;;15.75;10.32;;;16.30;99.90;;;-144.05;90.76;57014.50;6186339;23;20005;-82
2023/08/18 08:12:47;;;;;;;15.13;10.80;;;18.20;99.90;;;-144.05;90.56;57006.00;6159338;23;20494;-86
2023/08/18 08:15:14;;;;;;;19.27;11.98;;;;;;;-144.05;89.96;56991.13;6159627;23;20009;-84
2023/08/18 08:17:41;;;;;;;14.68;10.48;;;;;;;-144.05;89.56;56997.50;6158296;23;20028;-86
2023/08/18 08:20:16;;;;;;;18.40;12.10;;;19.30;99.90;;;-144.05;90.35;57006.00;6184625;23;20443;-83
2023/08/18 08:22:46;;;;;;;15.38;11.05;;;19.90;99.90;;;-144.05;89.94;56984.78;6158351;23;20351;-86
2023/08/18 08:25:13;;;;;;;15.55;11.38;;;;;;;-144.05;90.16;57006.00;6158308;23;20029;-85
2023/08/18 08:27:39;;;;;;;15.38;10.55;;;16.50;99.90;;;-144.05;89.94;56984.78;6185192;23;20469;-84
2023/08/18 08:30:09;;;;;;;16.15;11.63;;;16.70;99.90;;;-144.05;88.91;57012.38;6159192;23;20025;-85
2023/08/18 08:32:35;;;;;;;15.50;10.77;;;18.70;99.90;;;-144.05;87.75;57001.75;6165393;23;20076;-85
2023/08/18 08:35:01;;;;;;;12.77;10.20;;;16.80;99.90;;;-144.05;86.27;56993.25;6193517;23;20005;-80
2023/08/18 08:37:27;;;;;;;11.27;8.18;;;18.80;99.90;;;-144.05;86.88;56991.13;6191203;23;20041;-80
2023/08/18 08:39:53;;;;;;;13.50;8.95;;;20.00;99.90;;;-144.05;86.73;57031.50;6191513;23;20001;-85
2023/08/18 08:42:18;;;;;;;12.70;9.02;;;19.70;99.90;;;-144.05;86.00;57027.25;6166537;23;20009;-85
2023/08/18 08:44:44;;;;;;;15.63;10.15;;;20.20;99.90;;;-144.05;85.29;57025.13;6191842;23;20017;-86
2023/08/18 08:47:11;;;;;;;14.10;10.63;;;17.50;99.90;;;-144.05;84.51;57001.75;6190144;23;20076;-86
2023/08/18 08:49:43;;;;;;;12.75;10.18;;;17.80;99.90;;;-144.05;84.26;56986.91;6188402;23;20005;-80
2023/08/18 08:52:13;;;;;;;13.68;9.98;;;20.10;99.90;;;-144.05;83.84;56993.25;6188839;23;20013;-83
2023/08/18 08:55:01;;;;;;;14.02;9.93;;;19.50;99.90;;;-144.05;83.88;57006.00;6163058;23;20028;-80
2023/08/18 08:57:26;;;;;;;8.95;7.07;;;20.80;99.90;;;-144.05;83.24;57027.25;6162412;23;20009;-84
2023/08/18 08:59:54;;;;;;;12.40;8.52;;;21.40;99.90;;;-144.05;83.60;57001.75;6161968;23;20008;-83
2023/08/18 09:02:21;;;;;;;10.85;7.95;;;19.60;99.90;;;-144.05;83.49;56993.25;6188061;23;20402;-80
2023/08/18 09:04:47;;;;;;;13.10;8.77;;;;;;;-144.05;83.16;57016.63;6162770;23;20005;-84
2023/08/18 09:07:14;;;;;;;13.20;9.10;;;18.20;99.90;;;-144.05;81.56;57012.38;6162811;23;20001;-84
2023/08/18 09:09:42;;;;;;;9.75;8.02;;;18.10;99.90;;;-144.05;82.16;57029.38;6161847;23;20055;-80
2023/08/18 09:12:10;;;;;;;10.68;7.90;;;18.30;99.90;;;-144.05;81.81;57031.50;6188496;23;20011;-84
2023/08/18 09:14:39;;;;;;;14.60;7.15;;;18.40;99.90;;;-144.05;81.41;57042.13;6162617;23;20005;-81
2023/08/18 09:17:06;;;;;;;11.05;8.20;;;18.10;99.90;;;-144.05;80.27;57008.13;6192442;23;20012;-82
2023/08/18 09:19:33;;;;;;;10.68;7.75;;;20.00;99.90;;;-144.05;81.21;57020.88;6188555;23;20087;-81
2023/08/18 09:22:04;;;;;;;16.70;8.38;;;21.20;99.90;;;-144.05;80.79;57012.38;6189329;23;20007;-85
2023/08/18 09:24:32;;;;;;;13.40;8.77;;;18.50;99.90;;;-144.05;80.30;57018.75;6164247;23;20013;-79
2023/08/18 09:27:10;;;;;;;8.10;6.65;;;21.40;99.90;;;-144.05;79.03;57027.25;6164996;23;20021;-80
2023/08/18 09:29:36;;;;;;;11.60;8.30;;;22.10;99.90;;;-144.05;78.46;57025.13;6189890;23;20080;-81
2023/08/18 09:32:03;;;;;;;11.90;8.98;;;18.50;99.90;;;-144.05;77.22;57044.25;6189762;23;20100;-80
2023/08/18 09:34:32;;;;;;;9.32;7.28;;;18.80;99.90;;;-144.05;78.20;57029.38;6189690;23;20054;-81
2023/08/18 09:36:57;;;;;;;8.25;7.03;;;21.70;99.90;;;-144.05;78.23;57029.38;6162902;23;20016;-82
2023/08/18 09:39:26;;;;;;;12.98;8.73;;;21.90;99.90;;;-144.05;76.69;57025.13;6189377;23;20316;-84
2023/08/18 09:41:53;;;;;;;11.38;7.60;;;21.20;99.90;;;-144.05;75.80;57044.25;6188595;23;20005;-83
2023/08/18 09:44:22;;;;;;;12.90;7.53;;;23.00;99.90;;;-144.05;75.88;57059.09;6187871;23;20072;-83
2023/08/18 09:46:56;;;;;;;7.38;6.53;;;19.60;99.90;;;-144.05;74.61;57052.75;6188557;23;20454;-83
2023/08/18 09:49:25;;;;;;;11.80;8.60;;;21.80;99.90;;;-144.05;73.69;57035.75;6187766;23;20005;-84
2023/08/18 09:52:03;;;;;;;8.98;7.00;;;21.80;99.90;;;-144.05;72.12;57048.50;6188358;23;20005;-83
2023/08/18 09:54:51;;;;;;;10.30;8.10;;;21.80;99.90;;;-144.05;71.28;57052.75;6188101;23;20015;-82
2023/08/18 09:57:47;;;;;;;9.93;7.28;;;21.90;99.90;;;-144.05;71.30;57069.72;6160938;23;20009;-81
2023/08/18 10:00:17;;;;;;;8.60;6.57;;;21.90;99.90;;;-144.05;70.47;57086.72;6187482;23;20080;-83
2023/08/18 10:02:46;;;;;;;11.02;8.93;;;23.20;99.90;;;-144.05;70.09;57076.09;6161486;23;20411;-84
2023/08/18 10:05:14;;;;;;;8.50;6.38;;;23.80;99.90;;;-144.05;69.60;57069.72;6188261;23;20005;-82
2023/08/18 10:07:41;;;;;;;11.10;8.02;;;23.60;99.90;;;-144.05;69.03;57073.97;6187622;23;20011;-83
2023/08/18 10:10:08;;;;;;;9.85;7.40;;;21.00;99.90;;;-144.05;67.37;57090.97;6161823;23;20012;-83
2023/08/18 10:12:34;;;;;;;11.38;7.80;;;23.80;99.90;;;-144.05;67.29;57067.59;6188899;23;20001;-83
2023/08/18 10:15:01;;;;;;;12.85;8.25;;;23.10;99.90;;;-144.05;65.65;57099.47;6161870;23;20036;-84
2023/08/18 10:17:27;;;;;;;7.82;6.68;;;24.80;99.90;;;-144.05;65.23;57116.47;6186560;23;20009;-83